Time;durP1;ratioP1;P1;durP2;ratioP2;P2;SDS_P1;SDS_P2;PMS_P1;PMS_P2;Temp;Humidity;BMP_temperature;BMP_pressure;BME280_temperature;BME280_humidity;BME280_pressure;Samples;Min_cycle;Max_cycle;Signal;HPM_P1;HPM_P2
2021/08/28 07:12:44;;;;;;;7.43;5.53;;;;;;;14.12;93.82;99026.09;5131022;27;20426;-79
2021/08/28 07:15:12;;;;;;;5.70;4.93;;;;;;;14.30;93.60;99043.72;5131239;27;20069;-79
2021/08/28 07:17:39;;;;;;;8.25;4.78;;;;;;;14.23;91.73;99037.44;5129569;27;20047;-79
2021/08/28 07:20:07;;;;;;;5.90;4.25;;;;;;;14.14;92.33;99029.44;5128477;27;20051;-79
2021/08/28 07:22:34;;;;;;;6.43;5.20;;;;;;;14.20;92.39;99022.28;5129863;28;20048;-79
2021/08/28 07:25:00;;;;;;;6.15;4.40;;;;;;;14.22;91.45;99022.91;5129668;27;20050;-79
2021/08/28 07:27:27;;;;;;;5.22;4.57;;;;;;;14.26;90.84;99037.84;5129250;27;20047;-79
2021/08/28 07:29:55;;;;;;;6.43;4.60;;;;;;;14.29;91.26;99017.44;5129511;27;20054;-79
2021/08/28 07:32:25;;;;;;;6.82;4.55;;;;;;;14.43;90.78;99024.56;5129815;27;20069;-80
2021/08/28 07:34:55;;;;;;;5.68;4.63;;;;;;;14.42;90.57;99027.50;5129794;27;20055;-80
2021/08/28 07:37:22;;;;;;;8.85;4.80;;;;;;;14.29;nan;99023.75;5128635;27;20047;-80
2021/08/28 07:39:49;;;;;;;6.95;4.00;;;;;;;14.36;92.24;99040.13;5130343;27;20047;-80
2021/08/28 07:42:16;;;;;;;4.45;3.63;;;;;;;14.39;90.89;99037.00;5129501;27;20195;-79
2021/08/28 07:44:43;;;;;;;4.03;3.38;;;;;;;14.52;89.36;99036.94;5129681;27;20055;-79
2021/08/28 07:47:14;;;;;;;5.55;3.65;;;;;;;14.36;90.68;99031.09;5127720;27;20095;-79
2021/08/28 07:49:40;;;;;;;4.28;2.97;;;;;;;14.56;89.14;99031.06;5146040;27;20520;-80
2021/08/28 07:52:08;;;;;;;6.68;3.38;;;;;;;14.83;88.16;99040.09;5140712;27;20427;-79
2021/08/28 07:54:35;;;;;;;5.28;3.03;;;;;;;14.87;87.47;99027.63;5135332;27;20047;-80
2021/08/28 07:57:02;;;;;;;3.17;2.88;;;;;;;14.89;86.00;99033.75;5129647;27;20563;-79
2021/08/28 07:59:30;;;;;;;4.82;2.97;;;;;;;15.22;86.86;99039.06;5132154;27;20047;-79
2021/08/28 08:01:57;;;;;;;4.53;2.90;;;;;;;15.36;86.52;99030.78;5136908;27;20055;-79
2021/08/28 08:04:25;;;;;;;3.03;2.50;;;;;;;15.46;85.24;99046.72;5148200;27;20050;-80
2021/08/28 08:06:52;;;;;;;3.85;2.72;;;;;;;15.56;83.94;99050.66;5140671;27;20501;-80
2021/08/28 08:09:19;;;;;;;3.33;2.58;;;;;;;15.62;83.99;99051.69;5129255;28;20051;-80
2021/08/28 08:11:46;;;;;;;3.30;2.60;;;;;;;15.52;83.38;99051.31;5137496;27;20096;-80
2021/08/28 08:14:12;;;;;;;3.50;2.40;;;;;;;15.36;82.05;99052.69;5149156;27;20221;-79
2021/08/28 08:16:39;;;;;;;3.92;2.70;;;;;;;15.29;83.72;99041.75;5145407;27;20043;-80
2021/08/28 08:19:06;;;;;;;3.65;2.33;;;;;;;15.43;82.95;99049.91;5130594;27;20047;-80
2021/08/28 08:21:34;;;;;;;2.90;2.00;;;;;;;15.58;83.42;99064.13;5129162;27;20142;-80
2021/08/28 08:24:01;;;;;;;5.25;2.80;;;;;;;15.42;83.98;99051.81;5115577;27;20047;-80
2021/08/28 08:26:29;;;;;;;2.42;2.20;;;;;;;15.44;82.40;99046.13;5115336;28;20047;-80
2021/08/28 08:28:58;;;;;;;2.55;1.77;;;;;;;15.80;83.12;99045.50;5124129;27;20055;-80
2021/08/28 08:31:26;;;;;;;4.18;2.17;;;;;;;15.92;81.93;99060.16;5135516;27;20127;-80
2021/08/28 08:33:52;;;;;;;7.20;2.22;;;;;;;15.72;81.06;99046.56;5128260;27;20043;-80
2021/08/28 08:36:19;;;;;;;2.80;2.38;;;;;;;15.65;81.79;99026.59;5128482;27;20043;-80
2021/08/28 08:38:47;;;;;;;2.85;2.20;;;;;;;15.61;81.30;99036.31;5132151;27;20051;-79
2021/08/28 08:41:15;;;;;;;5.15;2.00;;;;;;;15.64;83.36;99048.72;5133721;27;20043;-80
2021/08/28 08:43:42;;;;;;;2.15;1.65;;;;;;;15.67;80.99;99040.94;5134384;27;20051;-80
2021/08/28 08:46:13;;;;;;;2.03;1.50;;;;;;;15.64;82.35;99054.22;5121321;27;20048;-79
2021/08/28 08:48:41;;;;;;;2.97;1.88;;;;;;;15.54;82.52;99055.53;5116076;28;20479;-80
2021/08/28 08:51:09;;;;;;;3.45;2.05;;;;;;;15.66;82.55;99055.69;5117361;27;20047;-79
2021/08/28 08:53:36;;;;;;;4.93;2.03;;;;;;;15.54;82.96;99041.84;5115676;28;20097;-79
2021/08/28 08:56:05;;;;;;;3.00;2.15;;;;;;;15.69;82.15;99060.72;5115318;28;20158;-79
2021/08/28 08:58:33;;;;;;;2.63;1.87;;;;;;;15.42;83.47;99040.03;5115911;28;20055;-79
2021/08/28 09:01:02;;;;;;;2.60;1.88;;;;;;;15.61;82.26;99063.72;5116088;28;20289;-79
2021/08/28 09:03:29;;;;;;;2.47;1.83;;;;;;;15.43;81.69;99044.44;5115808;27;20059;-79
2021/08/28 09:09:24;;;;;;;1.88;1.70;;;;;;;15.50;83.31;99069.91;5098485;28;20070;-79
2021/08/28 09:12:12;;;;;;;3.38;1.95;;;;;;;15.31;85.07;99056.09;5104181;28;20043;-79
2021/08/28 09:14:39;;;;;;;3.67;2.28;;;;;;;15.27;84.86;99059.50;5095895;28;20067;-80
2021/08/28 09:17:16;;;;;;;2.40;2.20;;;;;;;15.27;85.73;99064.97;5097372;28;20055;-79
2021/08/28 09:19:43;;;;;;;3.88;1.98;;;;;;;15.22;86.67;99060.16;5093196;28;20048;-79
2021/08/28 09:22:22;;;;;;;2.42;2.20;;;;;;;15.20;86.23;99068.56;5109956;28;20639;-79
2021/08/28 09:24:50;;;;;;;2.35;2.13;;;;;;;15.04;88.94;99064.41;5094971;28;20044;-79
2021/08/28 09:27:33;;;;;;;2.03;1.73;;;;;;;15.10;87.89;99073.66;5092563;28;20114;-79
2021/08/28 09:30:01;;;;;;;2.63;1.67;;;;;;;14.99;86.79;99069.69;5092156;28;20044;-80
2021/08/28 09:32:27;;;;;;;2.97;1.70;;;;;;;15.02;86.75;99071.16;5093796;28;20093;-80
2021/08/28 09:34:54;;;;;;;4.50;2.15;;;;;;;14.83;88.38;99075.66;5107232;28;20048;-80
2021/08/28 09:37:30;;;;;;;3.03;2.03;;;;;;;14.98;90.35;99081.72;5093877;28;20052;-80
2021/08/28 09:40:01;;;;;;;5.60;2.10;;;;;;;14.96;89.32;99072.84;5110922;28;20135;-80
2021/08/28 09:42:28;;;;;;;4.70;2.15;;;;;;;14.88;89.70;99072.28;5096258;28;20522;-80
2021/08/28 09:44:56;;;;;;;2.35;2.15;;;;;;;15.13;88.69;99080.59;5093489;28;20048;-80
2021/08/28 09:47:24;;;;;;;3.47;1.75;;;;;;;15.09;88.33;99076.63;5093727;28;20094;-80
2021/08/28 09:49:52;;;;;;;3.20;2.00;;;;;;;15.13;90.17;99078.72;5093531;28;20400;-80
2021/08/28 09:52:22;;;;;;;3.63;2.90;;;;;;;14.93;88.83;99070.56;5094493;28;20497;-80
2021/08/28 09:54:49;;;;;;;1.77;1.40;;;;;;;14.95;86.26;99082.16;5092710;28;20044;-80
2021/08/28 09:57:17;;;;;;;3.15;1.42;;;;;;;14.98;86.81;99080.84;5093461;28;20052;-80
2021/08/28 09:59:44;;;;;;;1.60;1.50;;;;;;;14.92;87.54;99071.63;5093264;28;20055;-80
2021/08/28 10:02:17;;;;;;;3.40;1.48;;;;;;;14.82;88.29;99077.53;5093296;28;20040;-80
2021/08/28 10:04:53;;;;;;;2.33;1.88;;;;;;;14.76;89.32;99086.59;5110442;28;20071;-80
2021/08/28 10:07:22;;;;;;;2.22;1.80;;;;;;;14.84;87.35;99082.78;5111552;28;20457;-80
2021/08/28 10:09:53;;;;;;;1.75;1.50;;;;;;;14.87;87.18;99090.56;5098816;28;20412;-80
2021/08/28 10:12:20;;;;;;;1.42;1.33;;;;;;;14.80;87.25;99070.63;5092914;28;20062;-80
2021/08/28 10:14:48;;;;;;;1.60;1.48;;;;;;;14.69;88.82;99072.97;5102381;28;20051;-80
2021/08/28 10:17:17;;;;;;;2.35;1.80;;;;;;;14.81;89.27;99075.00;5112654;28;20536;-80
2021/08/28 10:19:48;;;;;;;1.70;1.52;;;;;;;14.92;87.29;99074.38;5111425;28;20050;-80
2021/08/28 10:22:19;;;;;;;1.80;1.65;;;;;;;14.73;90.25;99075.25;5112930;28;20490;-80
2021/08/28 10:24:48;;;;;;;4.88;1.75;;;;;;;14.95;87.58;99079.41;5105510;28;20108;-80
2021/08/28 10:27:15;;;;;;;2.33;1.70;;;;;;;15.08;88.29;99072.19;5107277;28;20052;-80
2021/08/28 10:29:43;;;;;;;2.15;1.80;;;;;;;14.99;88.99;99077.91;5107104;28;20051;-80
2021/08/28 10:32:10;;;;;;;3.40;2.20;;;;;;;15.12;88.34;99065.25;5092517;28;20445;-80
2021/08/28 10:34:39;;;;;;;3.30;2.40;;;;;;;15.30;89.15;99073.56;5092140;28;20067;-81
2021/08/28 10:37:06;;;;;;;3.08;2.20;;;;;;;15.71;88.15;99079.69;5093168;28;20052;-80
2021/08/28 10:39:34;;;;;;;8.30;1.83;;;;;;;16.02;88.79;99075.28;5092491;28;20071;-80
2021/08/28 10:42:01;;;;;;;1.95;1.70;;;;;;;16.07;85.59;99073.53;5092663;28;20101;-80
2021/08/28 10:44:28;;;;;;;1.92;1.25;;;;;;;16.02;86.14;99076.13;5093075;28;20509;-80
2021/08/28 10:46:55;;;;;;;3.17;1.40;;;;;;;15.98;82.94;99085.00;5092282;28;20044;-80
2021/08/28 10:49:23;;;;;;;2.88;1.45;;;;;;;16.28;81.56;99066.81;5092827;28;20087;-80
2021/08/28 10:51:56;;;;;;;2.20;1.67;;;;;;;16.56;83.96;99079.25;5092068;28;20457;-80
2021/08/28 10:54:29;;;;;;;3.22;1.42;;;;;;;16.87;81.31;99068.41;5105714;28;20048;-80
2021/08/28 10:56:58;;;;;;;2.50;1.25;;;;;;;17.09;75.40;99066.88;5112804;28;20062;-80
2021/08/28 10:59:27;;;;;;;2.13;1.20;;;;;;;17.15;74.78;99063.19;5101563;28;20151;-80
2021/08/28 11:01:59;;;;;;;1.40;1.27;;;;;;;17.06;78.28;99067.31;5092333;28;20040;-80
2021/08/28 11:04:37;;;;;;;1.45;1.20;;;;;;;17.03;77.59;99065.03;5094680;28;20076;-80
2021/08/28 11:07:25;;;;;;;1.70;1.10;;;;;;;17.04;78.19;99080.47;5092228;28;20484;-80
2021/08/28 11:10:13;;;;;;;1.75;1.27;;;;;;;16.95;77.72;99071.69;5092002;28;20052;-80
2021/08/28 11:12:50;;;;;;;1.20;1.05;;;;;;;17.22;78.07;99076.00;5092081;28;20051;-80
2021/08/28 11:15:51;;;;;;;2.03;1.52;;;;;;;17.25;78.38;99076.41;5091574;28;20048;-80
2021/08/28 11:18:45;;;;;;;2.67;1.10;;;;;;;17.11;75.85;99080.38;5091901;28;20631;-80
2021/08/28 11:21:13;;;;;;;1.25;0.90;;;;;;;17.04;76.35;99077.72;5093171;28;20518;-80
2021/08/28 11:23:52;;;;;;;2.83;1.27;;;;;;;16.96;76.30;99062.34;5092688;28;20052;-80
2021/08/28 11:26:35;;;;;;;1.42;0.73;;;;;;;17.10;76.37;99079.53;5100020;28;20048;-80
2021/08/28 11:29:17;;;;;;;1.15;0.82;;;;;;;17.34;76.40;99075.00;5091467;28;20052;-80
2021/08/28 11:31:46;;;;;;;1.15;0.75;;;;;;;17.32;73.05;99055.16;5093308;28;20384;-80
2021/08/28 11:34:13;;;;;;;0.73;0.73;;;;;;;17.27;73.68;99063.25;5111975;28;20048;-80
2021/08/28 11:36:40;;;;;;;1.67;0.80;;;;;;;17.41;71.45;99071.34;5106062;28;20110;-81
2021/08/28 11:42:03;;;;;;;0.82;0.80;;;;;;;17.21;73.72;99060.59;5077401;27;20395;-80
2021/08/28 11:44:30;;;;;;;0.88;0.80;;;;;;;17.23;72.62;99051.06;5089308;28;20056;-81
2021/08/28 11:46:57;;;;;;;1.02;0.93;;;;;;;17.57;72.37;99073.44;5089885;28;20132;-81
2021/08/28 11:49:24;;;;;;;0.95;0.70;;;;;;;17.48;73.34;99070.16;5070924;28;20454;-81
2021/08/28 11:51:52;;;;;;;0.82;0.70;;;;;;;17.77;71.72;99069.56;5069506;28;20369;-81
2021/08/28 11:54:20;;;;;;;1.00;0.82;;;;;;;18.03;68.22;99065.59;5078599;28;20052;-79
2021/08/28 11:56:57;;;;;;;1.08;0.80;;;;;;;17.94;67.70;99064.25;5089574;28;20093;-81
2021/08/28 11:59:35;;;;;;;1.38;0.60;;;;;;;18.21;68.71;99059.97;5068852;28;20120;-81
2021/08/28 12:02:02;;;;;;;1.92;0.80;;;;;;;18.31;69.05;99066.84;5072492;28;20483;-80
2021/08/28 12:04:29;;;;;;;0.60;0.60;;;;;;;18.42;67.58;99056.91;5077461;28;20060;-80
2021/08/28 12:06:56;;;;;;;0.60;0.60;;;;;;;18.54;64.08;99060.50;5083234;28;20404;-81
2021/08/28 12:09:24;;;;;;;0.38;0.38;;;;;;;18.54;60.58;99066.81;5089529;28;20094;-81
2021/08/28 12:11:52;;;;;;;0.52;0.50;;;;;;;18.77;60.22;99072.56;5078647;28;20061;-80
2021/08/28 12:14:20;;;;;;;0.45;0.45;;;;;;;18.89;63.56;99071.53;5066176;28;20072;-80
2021/08/28 12:16:49;;;;;;;0.80;0.50;;;;;;;19.06;63.48;99060.59;5057982;28;20045;-80
2021/08/28 12:19:18;;;;;;;2.77;0.47;;;;;;;19.06;62.28;99054.25;5069608;28;20056;-80
2021/08/28 12:21:47;;;;;;;1.90;0.60;;;;;;;18.98;63.45;99060.13;5069039;28;20122;-81
2021/08/28 12:24:16;;;;;;;0.60;0.60;;;;;;;19.13;60.79;99060.44;5068278;28;20044;-80
2021/08/28 12:26:44;;;;;;;1.15;0.40;;;;;;;19.37;61.29;99060.38;5069649;28;20279;-80
2021/08/28 12:29:11;;;;;;;2.80;0.60;;;;;;;19.37;59.47;99050.19;5048277;28;20243;-81
2021/08/28 12:31:38;;;;;;;0.47;0.32;;;;;;;19.81;58.71;99046.88;5048623;28;20135;-80
2021/08/28 12:34:19;;;;;;;0.57;0.50;;;;;;;19.77;55.89;99057.59;5068216;28;20078;-81
2021/08/28 12:36:47;;;;;;;0.40;0.40;;;;;;;20.04;56.81;99058.88;5077433;28;20048;-81
2021/08/28 12:39:14;;;;;;;0.40;0.40;;;;;;;19.68;57.76;99060.97;5074022;28;20080;-81
2021/08/28 12:41:42;;;;;;;1.33;0.50;;;;;;;19.80;56.74;99062.63;5068009;28;20480;-80
2021/08/28 12:44:11;;;;;;;0.20;0.20;;;;;;;19.61;56.85;99061.94;5078792;28;20048;-81
2021/08/28 12:46:39;;;;;;;1.52;0.40;;;;;;;19.66;54.94;99064.00;5088609;28;20097;-80
2021/08/28 12:49:16;;;;;;;0.73;0.73;;;;;;;19.33;58.78;99060.03;5060342;28;20114;-80
2021/08/28 12:51:57;;;;;;;0.63;0.50;;;;;;;19.36;58.48;99058.69;5063884;28;20056;-80
2021/08/28 12:54:26;;;;;;;0.43;0.40;;;;;;;19.06;60.65;99057.84;5061724;28;20051;-80
2021/08/28 12:56:54;;;;;;;0.50;0.50;;;;;;;19.07;57.29;99054.00;5055069;28;20049;-81
2021/08/28 12:59:23;;;;;;;0.60;0.40;;;;;;;18.85;58.34;99058.44;5054777;28;20071;-81
2021/08/28 13:01:52;;;;;;;0.35;0.35;;;;;;;18.44;59.89;99052.00;5054362;28;20056;-81
2021/08/28 13:04:21;;;;;;;1.23;0.52;;;;;;;18.46;59.58;99042.44;5060110;28;20044;-81
2021/08/28 13:07:10;;;;;;;1.80;0.47;;;;;;;19.32;60.36;99052.84;5047519;28;20049;-80
2021/08/28 13:09:48;;;;;;;1.10;0.50;;;;;;;19.42;57.69;99057.72;5054407;28;20052;-80
2021/08/28 13:12:15;;;;;;;0.40;0.40;;;;;;;19.23;57.61;99052.38;5063222;28;20048;-80
2021/08/28 13:14:55;;;;;;;0.88;0.50;;;;;;;18.98;58.57;99052.69;5074087;28;20416;-80
2021/08/28 13:17:27;;;;;;;1.05;0.50;;;;;;;18.72;59.51;99027.31;5065772;28;20060;-80
2021/08/28 13:20:04;;;;;;;0.63;0.45;;;;;;;18.88;58.71;99053.31;5057945;28;20048;-80
2021/08/28 13:22:31;;;;;;;0.40;0.40;;;;;;;18.81;59.26;99040.72;5064135;28;20405;-80
2021/08/28 13:24:58;;;;;;;0.32;0.32;;;;;;;18.53;58.54;99047.81;5074133;28;20048;-80
2021/08/28 13:27:25;;;;;;;2.40;0.60;;;;;;;18.49;58.48;99046.63;5073509;28;20395;-80
2021/08/28 13:29:51;;;;;;;3.30;0.60;;;;;;;18.40;59.45;99049.72;5073518;28;20052;-80
2021/08/28 13:32:19;;;;;;;0.85;0.40;;;;;;;18.16;59.22;99029.59;5074553;28;20045;-80
2021/08/28 13:34:48;;;;;;;2.22;0.50;;;;;;;18.39;59.45;99047.22;5073430;28;20466;-80
2021/08/28 13:37:18;;;;;;;0.55;0.50;;;;;;;18.29;59.97;99045.06;5054925;28;20495;-79
2021/08/28 13:39:48;;;;;;;2.28;0.40;;;;;;;18.34;60.22;99041.59;5049798;28;20048;-80
2021/08/28 13:42:22;;;;;;;0.73;0.52;;;;;;;18.36;57.75;99034.75;5054024;28;20471;-80
2021/08/28 13:44:49;;;;;;;0.55;0.47;;;;;;;18.48;57.45;99042.19;5062329;28;20083;-80
2021/08/28 13:47:16;;;;;;;0.75;0.47;;;;;;;18.62;58.52;99043.59;5074117;28;20118;-80
2021/08/28 13:49:43;;;;;;;1.25;0.70;;;;;;;18.52;57.10;99032.38;5071887;28;20056;-80
2021/08/28 13:52:11;;;;;;;0.55;0.50;;;;;;;18.36;58.94;99023.75;5054166;28;20045;-80
2021/08/28 13:54:39;;;;;;;0.40;0.40;;;;;;;18.72;59.33;99048.50;5052867;28;20051;-80
2021/08/28 13:57:07;;;;;;;0.30;0.30;;;;;;;18.75;58.22;99039.78;5072672;28;20102;-80
2021/08/28 13:59:33;;;;;;;1.90;0.40;;;;;;;18.67;57.68;99026.38;5073478;28;20049;-81
2021/08/28 14:02:00;;;;;;;0.55;0.52;;;;;;;18.71;58.98;99039.44;5059024;28;20283;-81
2021/08/28 14:04:27;;;;;;;0.70;0.43;;;;;;;18.72;58.49;99021.81;5052479;28;20126;-81
2021/08/28 14:06:54;;;;;;;0.63;0.40;;;;;;;18.61;58.07;99025.44;5053355;28;20048;-81
2021/08/28 14:09:21;;;;;;;0.40;0.40;;;;;;;18.49;57.79;99030.94;5053396;28;20451;-81
2021/08/28 14:11:49;;;;;;;0.90;0.40;;;;;;;18.60;56.57;99033.94;5053625;28;20052;-81
2021/08/28 14:14:16;;;;;;;0.60;0.50;;;;;;;18.68;57.31;99034.41;5053461;28;20049;-81
2021/08/28 14:16:43;;;;;;;3.35;0.50;;;;;;;18.57;56.28;99027.81;5059884;28;20049;-81
2021/08/28 14:19:10;;;;;;;0.55;0.55;;;;;;;18.69;57.68;99033.31;5060505;28;20044;-81
2021/08/28 14:21:37;;;;;;;0.80;0.63;;;;;;;18.70;57.21;99042.41;5053193;28;20045;-81
2021/08/28 14:24:04;;;;;;;0.30;0.30;;;;;;;18.60;57.30;99032.00;5053009;28;20052;-81
2021/08/28 14:26:30;;;;;;;2.17;0.45;;;;;;;18.57;58.64;99033.31;5053916;28;20467;-80
2021/08/28 14:29:00;;;;;;;0.40;0.40;;;;;;;18.57;58.81;99030.56;5072540;28;20117;-80
2021/08/28 14:31:27;;;;;;;;;;;;;;;18.75;59.24;99046.09;5063913;28;20045;-81
2021/08/28 14:33:54;;;;;;;4.45;0.90;;;;;;;18.58;59.51;99032.25;5053063;28;19928;-81
2021/08/28 14:36:20;;;;;;;0.52;0.52;;;;;;;18.68;59.95;99044.56;5053149;28;20056;-80
2021/08/28 14:38:47;;;;;;;0.50;0.40;;;;;;;18.48;59.61;99040.25;5057599;28;20550;-81
2021/08/28 14:41:14;;;;;;;0.40;0.40;;;;;;;18.35;58.09;99046.84;5072581;28;20045;-80
2021/08/28 14:43:41;;;;;;;1.70;0.45;;;;;;;18.22;57.39;99042.41;5072550;28;20056;-80
2021/08/28 14:46:09;;;;;;;0.50;0.50;;;;;;;18.20;59.43;99038.22;5040030;28;20068;-81
2021/08/28 14:48:36;;;;;;;0.98;0.65;;;;;;;18.26;56.83;99048.28;5072807;28;20048;-81
2021/08/28 14:51:04;;;;;;;1.05;0.80;;;;;;;18.23;59.42;99043.25;5059050;28;20045;-80
2021/08/28 14:53:31;;;;;;;0.60;0.52;;;;;;;18.49;58.99;99044.69;5052346;28;20045;-81
2021/08/28 14:55:58;;;;;;;2.38;0.75;;;;;;;18.28;57.85;99037.88;5052704;28;20488;-81
2021/08/28 14:58:24;;;;;;;1.05;0.60;;;;;;;18.05;58.41;99041.44;5052620;28;20488;-80
2021/08/28 15:00:51;;;;;;;2.40;0.68;;;;;;;18.14;59.36;99041.91;5052487;28;20053;-80
2021/08/28 15:03:19;;;;;;;3.88;0.70;;;;;;;18.19;60.01;99042.88;5038260;28;20049;-81
2021/08/28 15:05:46;;;;;;;1.77;0.85;;;;;;;18.09;60.13;99050.88;5032388;28;20053;-80
2021/08/28 15:08:13;;;;;;;1.02;0.68;;;;;;;18.05;61.25;99046.94;5050412;28;20107;-80
2021/08/28 15:10:40;;;;;;;1.02;0.60;;;;;;;17.93;62.07;99038.69;5052429;28;20049;-80
2021/08/28 15:13:06;;;;;;;1.02;0.70;;;;;;;18.01;61.79;99046.56;5066634;28;20048;-80
2021/08/28 15:15:33;;;;;;;0.77;0.70;;;;;;;17.98;62.83;99049.78;5071569;28;20813;-80
2021/08/28 15:18:00;;;;;;;0.95;0.80;;;;;;;17.82;62.82;99053.19;5058882;28;20443;-80
2021/08/28 15:20:28;;;;;;;0.60;0.60;;;;;;;17.82;62.93;99047.69;5051333;28;20492;-81
2021/08/28 15:22:55;;;;;;;0.95;0.77;;;;;;;17.61;61.12;99055.38;5052388;28;20048;-81
2021/08/28 15:25:22;;;;;;;2.25;1.00;;;;;;;17.43;61.09;99042.56;5051887;28;20455;-80
2021/08/28 15:27:53;;;;;;;0.70;0.70;;;;;;;17.24;62.33;99047.25;5051587;28;20053;-80
2021/08/28 15:30:20;;;;;;;0.85;0.77;;;;;;;17.14;63.57;99045.03;5052157;28;20394;-80
2021/08/28 15:32:47;;;;;;;2.72;1.27;;;;;;;17.25;64.45;99059.06;5052118;28;20045;-80
2021/08/28 15:35:14;;;;;;;0.70;0.70;;;;;;;17.16;65.22;99056.66;5055751;28;20142;-80
2021/08/28 15:37:42;;;;;;;2.10;1.10;;;;;;;17.10;66.54;99046.59;5032092;28;20072;-80
2021/08/28 15:40:10;;;;;;;2.45;0.80;;;;;;;16.94;67.34;99047.19;5040857;28;20466;-80
2021/08/28 15:42:41;;;;;;;0.90;0.90;;;;;;;16.99;68.55;99052.84;5051892;28;20404;-80
2021/08/28 15:45:09;;;;;;;2.05;0.70;;;;;;;17.12;70.19;99049.94;5052142;28;20119;-80
2021/08/28 15:47:39;;;;;;;0.85;0.85;;;;;;;17.06;68.48;99050.84;5051996;28;20420;-80
2021/08/28 15:50:10;;;;;;;0.60;0.60;;;;;;;17.00;69.29;99038.03;5051177;28;20041;-80
2021/08/28 15:52:39;;;;;;;1.55;0.73;;;;;;;16.97;69.88;99054.97;5031931;28;20493;-80
2021/08/28 15:55:08;;;;;;;0.50;0.50;;;;;;;16.99;68.85;99061.06;5031713;28;20052;-80
2021/08/28 15:57:35;;;;;;;1.40;0.57;;;;;;;16.78;67.82;99045.88;5047655;28;20462;-80
2021/08/28 16:00:02;;;;;;;1.10;0.88;;;;;;;16.85;69.05;99057.63;5053006;28;20048;-81
2021/08/28 16:02:29;;;;;;;0.93;0.82;;;;;;;16.79;68.96;99059.34;5052010;28;20045;-80
2021/08/28 16:05:00;;;;;;;1.45;0.80;;;;;;;16.84;68.65;99055.94;5051633;28;20118;-80
2021/08/28 16:07:31;;;;;;;1.80;1.08;;;;;;;16.70;69.43;99046.19;5053297;28;20464;-80
2021/08/28 16:09:58;;;;;;;3.85;1.30;;;;;;;16.85;67.71;99059.53;5071590;28;20561;-81
2021/08/28 16:12:26;;;;;;;4.15;0.98;;;;;;;16.86;67.12;99064.78;5071215;28;20055;-81
2021/08/28 16:14:57;;;;;;;1.15;0.70;;;;;;;16.87;66.69;99076.63;5071435;28;20480;-81
2021/08/28 16:17:26;;;;;;;0.68;0.60;;;;;;;16.95;67.25;99065.34;5071366;28;20052;-80
2021/08/28 16:19:53;;;;;;;1.83;0.90;;;;;;;17.13;65.21;99045.25;5070807;28;20052;-81
2021/08/28 16:22:20;;;;;;;1.77;0.80;;;;;;;17.02;66.73;99063.34;5068750;28;20132;-81
2021/08/28 16:24:50;;;;;;;3.90;0.90;;;;;;;16.99;66.96;99039.94;5051539;28;20386;-80
2021/08/28 16:27:17;;;;;;;0.77;0.70;;;;;;;17.04;66.37;99057.63;5053201;28;20053;-81
2021/08/28 16:29:45;;;;;;;2.53;0.95;;;;;;;17.10;66.99;99042.97;5054909;28;20048;-81
2021/08/28 16:32:12;;;;;;;2.30;1.40;;;;;;;17.05;68.74;99048.34;5055459;28;20052;-81
2021/08/28 16:34:39;;;;;;;1.40;1.30;;;;;;;17.01;69.04;99038.88;5062187;28;20106;-81
2021/08/28 16:37:06;;;;;;;4.05;1.52;;;;;;;17.06;70.19;99069.25;5075109;28;20055;-81
2021/08/28 16:39:36;;;;;;;1.83;1.30;;;;;;;16.96;70.79;99039.56;5074480;28;20053;-80
2021/08/28 16:42:03;;;;;;;1.33;1.13;;;;;;;16.93;70.41;99053.75;5069357;28;20049;-80
2021/08/28 16:44:29;;;;;;;1.50;1.27;;;;;;;16.78;71.01;99051.34;5074638;28;20106;-81
2021/08/28 16:46:58;;;;;;;1.70;1.40;;;;;;;16.54;71.72;99039.38;5074097;28;20143;-80
2021/08/28 16:49:24;;;;;;;2.03;1.40;;;;;;;16.75;72.59;99069.09;5074900;28;20056;-80
2021/08/28 16:51:51;;;;;;;2.17;1.65;;;;;;;16.54;72.98;99044.84;5065208;28;20059;-81
2021/08/28 16:54:18;;;;;;;2.25;1.73;;;;;;;16.62;73.10;99075.59;5054691;28;20075;-80
2021/08/28 16:56:47;;;;;;;2.95;1.67;;;;;;;16.64;73.96;99067.13;5041372;28;20049;-80
2021/08/28 16:59:13;;;;;;;4.55;1.60;;;;;;;16.58;74.16;99074.34;5054601;28;20416;-80
2021/08/28 17:01:40;;;;;;;4.57;2.15;;;;;;;16.46;73.78;99054.22;5054800;28;20049;-80
2021/08/28 17:04:09;;;;;;;2.38;1.60;;;;;;;16.28;74.55;99053.09;5073753;28;20044;-80
2021/08/28 17:06:35;;;;;;;1.98;1.63;;;;;;;16.40;75.51;99066.94;5059362;28;20048;-80
2021/08/28 17:09:03;;;;;;;1.65;1.55;;;;;;;16.36;76.27;99071.19;5064179;28;20067;-80
2021/08/28 17:11:30;;;;;;;1.88;1.60;;;;;;;16.53;75.22;99070.59;5068940;28;20055;-80
2021/08/28 17:13:57;;;;;;;2.10;1.75;;;;;;;16.36;74.78;99071.19;5037470;28;20385;-80
2021/08/28 17:16:24;;;;;;;2.47;2.00;;;;;;;16.15;75.70;99063.38;5054522;28;20056;-80
2021/08/28 17:18:50;;;;;;;2.25;1.80;;;;;;;16.22;75.29;99055.91;5054511;28;20048;-80
2021/08/28 17:21:21;;;;;;;2.58;1.80;;;;;;;16.33;75.85;99073.53;5069799;28;20480;-80
2021/08/28 17:23:48;;;;;;;2.83;1.92;;;;;;;16.37;75.19;99072.03;5071887;28;20096;-80
2021/08/28 17:26:15;;;;;;;2.67;1.85;;;;;;;16.27;74.79;99065.16;5056578;28;20467;-80
2021/08/28 17:28:42;;;;;;;2.08;1.85;;;;;;;16.24;75.72;99062.00;5053561;28;20064;-81
2021/08/28 17:31:09;;;;;;;3.33;1.70;;;;;;;16.14;76.35;99064.41;5068823;28;20053;-80
2021/08/28 17:33:36;;;;;;;3.72;1.70;;;;;;;15.98;76.80;99065.81;5073746;28;20093;-80
2021/08/28 17:36:06;;;;;;;4.22;2.65;;;;;;;15.89;77.42;99068.81;5073235;28;20053;-80
2021/08/28 17:38:34;;;;;;;;;;;;;;;15.88;78.47;99075.38;5075056;28;20056;-80
2021/08/28 17:41:01;;;;;;;2.70;2.10;;;;;;;15.75;77.99;99067.22;5073187;28;19927;-80
2021/08/28 17:43:28;;;;;;;9.77;2.17;;;;;;;15.75;78.37;99076.28;5058735;28;20141;-80
2021/08/28 17:45:55;;;;;;;2.90;1.98;;;;;;;15.77;79.04;99067.81;5047502;28;20493;-80
2021/08/28 17:48:22;;;;;;;3.08;2.05;;;;;;;15.81;79.40;99079.25;5062567;28;20131;-80
2021/08/28 17:50:49;;;;;;;5.15;2.15;;;;;;;15.79;79.20;99086.81;5056543;28;20092;-80
2021/08/28 17:53:16;;;;;;;3.33;2.05;;;;;;;15.66;80.46;99083.06;5064366;28;20094;-80
2021/08/28 17:55:44;;;;;;;2.00;1.80;;;;;;;15.58;80.53;99097.88;5073693;28;20049;-80
2021/08/28 17:58:11;;;;;;;2.63;2.08;;;;;;;15.43;80.40;99089.13;5072902;28;20102;-80
2021/08/28 18:00:38;;;;;;;2.65;2.10;;;;;;;15.57;80.69;99098.09;5073674;28;20048;-80
2021/08/28 18:03:04;;;;;;;3.63;2.90;;;;;;;15.43;80.87;99078.16;5070344;28;20052;-80
2021/08/28 18:05:31;;;;;;;5.10;2.97;;;;;;;15.37;81.31;99087.22;5051257;28;20130;-80
2021/08/28 18:07:58;;;;;;;4.45;2.25;;;;;;;15.38;81.95;99102.59;5053950;28;20056;-81
2021/08/28 18:10:26;;;;;;;3.47;2.50;;;;;;;15.22;82.21;99095.75;5053804;28;20057;-80
2021/08/28 18:12:54;;;;;;;2.67;2.25;;;;;;;15.24;82.28;99092.78;5053481;28;20484;-80
2021/08/28 18:15:21;;;;;;;2.75;2.30;;;;;;;15.19;82.76;99099.75;5053314;28;20049;-80
2021/08/28 18:17:48;;;;;;;3.42;2.47;;;;;;;15.03;82.83;99101.06;5052701;28;20107;-80
2021/08/28 18:20:15;;;;;;;3.50;2.53;;;;;;;15.08;82.76;99108.63;5052413;28;20068;-80
2021/08/28 18:22:41;;;;;;;12.50;6.05;;;;;;;15.00;84.17;99115.19;5060024;28;20056;-80
2021/08/28 18:25:09;;;;;;;12.20;6.72;;;;;;;14.96;84.58;99121.28;5052908;28;20052;-80
2021/08/28 18:27:38;;;;;;;5.63;3.45;;;;;;;14.76;85.69;99115.88;5053456;28;20110;-80
2021/08/28 18:30:08;;;;;;;5.53;2.58;;;;;;;14.78;85.79;99125.53;5052586;28;20057;-79
2021/08/28 18:32:35;;;;;;;3.78;2.25;;;;;;;14.57;87.04;99112.06;5053402;28;20110;-80
2021/08/28 18:35:05;;;;;;;4.22;3.35;;;;;;;14.51;88.29;99136.50;5051554;28;20554;-80
2021/08/28 18:37:32;;;;;;;4.35;3.42;;;;;;;14.53;88.44;99136.28;5067534;28;20098;-80
2021/08/28 18:40:03;;;;;;;6.50;4.10;;;;;;;14.38;88.51;99125.56;5068218;28;20044;-80
2021/08/28 18:42:30;;;;;;;4.28;3.33;;;;;;;14.30;88.65;99126.63;5052984;28;20051;-80
2021/08/28 18:44:57;;;;;;;5.63;3.38;;;;;;;14.45;88.73;99139.22;5052470;28;20045;-80
2021/08/28 18:47:25;;;;;;;5.25;2.72;;;;;;;14.50;87.95;99142.19;5052971;28;20424;-80
2021/08/28 18:49:55;;;;;;;4.53;3.03;;;;;;;14.49;88.21;99156.91;5063562;28;20053;-80
2021/08/28 18:52:21;;;;;;;3.92;2.88;;;;;;;14.22;89.95;99167.00;5044632;28;20057;-80
2021/08/28 18:54:51;;;;;;;4.30;2.70;;;;;;;14.26;90.43;99162.78;5038103;28;20492;-80
2021/08/28 18:57:18;;;;;;;5.95;2.90;;;;;;;14.21;90.92;99151.63;5070209;28;20052;-80
2021/08/28 18:59:45;;;;;;;6.30;3.17;;;;;;;14.33;90.88;99163.63;5052769;28;20549;-80